Pythagoras — C6ZO4 — position and weather

sailwx.info

Track history (hours):
 
Tides and Currents Weather Stations Pressure Air Temp Water Temp Dewpoint Dewpoint Depression Visibility Wind Speed Wind Dir Waves Ship Positions

Pythagoras

Last reported at 2015-Jan-13 18:22 UTC. Time now 2015-Jan-26 06:30 UTC.
Position N 01°16' E 104°19'.
Warning: this ship's position is 12 days out of date.

Length 190 m; draft 7.2 m.

Type: Cargo ship. MMSI: 311061300.

Date/timePositionNaut miles runAvg speedWind from/ knotsBaromVisibWave heightAir tempDewpointWater temp
2015-Jan-13 18:22N 01°16' E 104°19'810.3
2015-Jan-13 17:33N 01°16' E 104°10'5 4.7
2015-Jan-13 16:32N 01°17' E 104°15'3 0.2
2015-Jan-13 00:09N 01°16' E 104°18'711.2
2015-Jan-12 23:33N 01°15' E 104°11'1111.3
2015-Jan-12 22:33N 01°15' E 103°60'2 2.0
2015-Jan-12 21:18N 01°17' E 103°58'0 0.0
2015-Jan-12 20:30N 01°17' E 103°58'0 0.0
2015-Jan-12 19:30N 01°17' E 103°58'0 0.0
2015-Jan-12 18:24N 01°17' E 103°58'0 0.0
2015-Jan-12 17:30N 01°17' E 103°58'0 0.0
2015-Jan-12 16:30N 01°17' E 103°58'0 0.0
2015-Jan-12 14:18N 01°17' E 103°58'0 0.0
2015-Jan-12 12:30N 01°17' E 103°58'0 0.0
2015-Jan-12 11:18N 01°17' E 103°58'0 0.0
2015-Jan-12 09:21N 01°17' E 103°58'0 0.0
2015-Jan-12 08:33N 01°17' E 103°58'0 0.0
2015-Jan-12 07:33N 01°17' E 103°58'0 0.1
2015-Jan-12 06:30N 01°17' E 103°58'0 0.0
2015-Jan-12 05:24N 01°17' E 103°58'0 0.0
2015-Jan-12 04:06N 01°17' E 103°58'0 0.0
2015-Jan-12 03:33N 01°17' E 103°58'0 0.0
2015-Jan-12 02:30N 01°17' E 103°58'0 0.0
2015-Jan-12 01:33N 01°17' E 103°58'1 1.0
2015-Jan-12 00:33N 01°17' E 103°57'3 2.6
2015-Jan-11 23:33N 01°15' E 103°57'9 8.1
2015-Jan-11 22:28N 01°10' E 103°50'4 4.0
2015-Jan-11 21:27N 01°08' E 103°46'50 8.5
2015-Jan-11 15:31N 01°29' E 103°01'1212.0
2015-Jan-11 14:29N 01°36' E 102°50'  
Track history (hours):
 
Tides and Currents Weather Stations Pressure Air Temp Water Temp Dewpoint Dewpoint Depression Visibility Wind Speed Wind Dir Waves Ship Positions

Pythagoras

Last reported at 2015-Jan-13 18:22 UTC. Time now 2015-Jan-26 06:30 UTC.
Position N 01°16' E 104°19'.
Warning: this ship's position is 12 days out of date.

Length 190 m; draft 7.2 m.

Type: Cargo ship. MMSI: 311061300.

Date/timePositionNaut miles runAvg speedWind from/ knotsBaromVisibWave heightAir tempDewpointWater temp
2015-Jan-13 18:22N 01°16' E 104°19'810.3
2015-Jan-13 17:33N 01°16' E 104°10'5 4.7
2015-Jan-13 16:32N 01°17' E 104°15'3 0.2
2015-Jan-13 00:09N 01°16' E 104°18'711.2
2015-Jan-12 23:33N 01°15' E 104°11'1111.3
2015-Jan-12 22:33N 01°15' E 103°60'2 2.0
2015-Jan-12 21:18N 01°17' E 103°58'0 0.0
2015-Jan-12 20:30N 01°17' E 103°58'0 0.0
2015-Jan-12 19:30N 01°17' E 103°58'0 0.0
2015-Jan-12 18:24N 01°17' E 103°58'0 0.0
2015-Jan-12 17:30N 01°17' E 103°58'0 0.0
2015-Jan-12 16:30N 01°17' E 103°58'0 0.0
2015-Jan-12 14:18N 01°17' E 103°58'0 0.0
2015-Jan-12 12:30N 01°17' E 103°58'0 0.0
2015-Jan-12 11:18N 01°17' E 103°58'0 0.0
2015-Jan-12 09:21N 01°17' E 103°58'0 0.0
2015-Jan-12 08:33N 01°17' E 103°58'0 0.0
2015-Jan-12 07:33N 01°17' E 103°58'0 0.1
2015-Jan-12 06:30N 01°17' E 103°58'0 0.0
2015-Jan-12 05:24N 01°17' E 103°58'0 0.0
2015-Jan-12 04:06N 01°17' E 103°58'0 0.0
2015-Jan-12 03:33N 01°17' E 103°58'0 0.0
2015-Jan-12 02:30N 01°17' E 103°58'0 0.0
2015-Jan-12 01:33N 01°17' E 103°58'1 1.0
2015-Jan-12 00:33N 01°17' E 103°57'3 2.6
2015-Jan-11 23:33N 01°15' E 103°57'9 8.1
2015-Jan-11 22:28N 01°10' E 103°50'4 4.0
2015-Jan-11 21:27N 01°08' E 103°46'50 8.5
2015-Jan-11 15:31N 01°29' E 103°01'1212.0
2015-Jan-11 14:29N 01°36' E 102°50'  

Dump ship's entire track history